createdAt,value
2023-01-21T00:00:36.837Z,-1.1
2023-01-21T00:01:36.843Z,-1.1
2023-01-21T00:02:36.952Z,-1.1
2023-01-21T00:03:36.991Z,-1.1
2023-01-21T00:04:36.876Z,-1.1
2023-01-21T00:05:36.872Z,-1.1
2023-01-21T00:06:36.845Z,-1.2
2023-01-21T00:07:36.844Z,-1.1
2023-01-21T00:09:36.848Z,-1.1
2023-01-21T00:10:36.849Z,-1.1
2023-01-21T00:11:36.843Z,-1.1
2023-01-21T00:12:36.840Z,-1.2
2023-01-21T00:13:36.854Z,-1.2
2023-01-21T00:14:36.839Z,-1.2
2023-01-21T00:15:36.935Z,-1.2
2023-01-21T00:16:36.838Z,-1.2
2023-01-21T00:17:36.841Z,-1.2
2023-01-21T00:18:36.875Z,-1.2
2023-01-21T00:19:36.847Z,-1.2
2023-01-21T00:20:36.858Z,-1.2
2023-01-21T00:21:36.851Z,-1.3
2023-01-21T00:22:36.841Z,-1.3
2023-01-21T00:23:36.849Z,-1.3
2023-01-21T00:24:36.841Z,-1.3
2023-01-21T00:25:36.854Z,-1.3
2023-01-21T00:26:36.849Z,-1.3
2023-01-21T00:27:36.850Z,-1.3
2023-01-21T00:28:36.844Z,-1.3
2023-01-21T00:29:36.898Z,-1.3
2023-01-21T00:30:37.027Z,-1.3
2023-01-21T00:31:36.978Z,-1.3
2023-01-21T00:32:36.837Z,-1.3
2023-01-21T00:33:36.843Z,-1.4
2023-01-21T01:24:36.848Z,-1.4
2023-01-21T01:25:36.837Z,-1.4
2023-01-21T01:26:36.912Z,-1.4
2023-01-21T01:27:36.851Z,-1.5
2023-01-21T01:28:36.852Z,-1.6
2023-01-21T01:29:36.876Z,-1.5
2023-01-21T01:30:36.886Z,-1.5
2023-01-21T01:31:37.300Z,-1.4
2023-01-21T01:32:36.845Z,-1.5
2023-01-21T01:33:36.852Z,-1.5
2023-01-21T01:34:36.851Z,-1.5
2023-01-21T01:35:36.859Z,-1.5
2023-01-21T01:36:36.848Z,-1.5
2023-01-21T01:37:36.875Z,-1.5
2023-01-21T01:38:36.849Z,-1.5
2023-01-21T01:58:17.712Z,-1.5
2023-01-21T02:44:36.849Z,-1.6
2023-01-21T02:45:36.852Z,-1.6
2023-01-21T02:46:36.931Z,-1.7
2023-01-21T02:47:36.853Z,-1.7
2023-01-21T02:48:36.855Z,-1.7
2023-01-21T02:49:36.854Z,-1.7
2023-01-21T02:51:36.845Z,-1.7
2023-01-21T02:52:36.855Z,-1.7
2023-01-21T02:53:36.909Z,-1.8
2023-01-21T02:54:36.873Z,-1.8
2023-01-21T02:55:36.849Z,-1.8
2023-01-21T02:56:36.847Z,-1.8
2023-01-21T02:57:36.857Z,-1.8
2023-01-21T02:58:36.886Z,-1.8
2023-01-21T02:59:36.848Z,-1.8
2023-01-21T03:00:46.759Z,-1.8
2023-01-21T03:18:18.024Z,-2
2023-01-21T03:20:46.295Z,-2
2023-01-21T03:26:19.832Z,-2
2023-01-21T03:31:16.573Z,-1.9
2023-01-21T03:37:48.081Z,-2.1
2023-01-21T03:38:16.177Z,-2
2023-01-21T04:21:36.858Z,-2.4
2023-01-21T04:22:36.856Z,-2.4
2023-01-21T04:23:36.865Z,-2.4
2023-01-21T04:24:36.881Z,-2.5
2023-01-21T04:25:36.853Z,-2.5
2023-01-21T04:26:36.889Z,-2.4
2023-01-21T04:27:36.906Z,-2.5
2023-01-21T04:28:36.854Z,-2.5
2023-01-21T04:29:36.864Z,-2.5
2023-01-21T04:30:36.898Z,-2.6
2023-01-21T04:31:36.948Z,-2.6
2023-01-21T04:32:36.846Z,-2.6
2023-01-21T04:33:36.857Z,-2.6
2023-01-21T04:34:36.849Z,-2.6
2023-01-21T04:35:36.855Z,-2.6
2023-01-21T04:43:46.276Z,-2.6
2023-01-21T04:53:16.235Z,-2.7
2023-01-21T04:59:26.853Z,-2.6
2023-01-21T05:02:18.037Z,-2.6
2023-01-21T05:04:46.276Z,-2.6
2023-01-21T05:10:19.831Z,-2.7
2023-01-21T05:15:06.096Z,-2.7
2023-01-21T05:59:36.869Z,-2.7
2023-01-21T06:00:36.856Z,-2.7
2023-01-21T06:01:36.870Z,-2.7
2023-01-21T06:02:36.953Z,-2.7
2023-01-21T06:03:36.911Z,-2.7
2023-01-21T06:04:36.865Z,-2.7
2023-01-21T06:05:36.860Z,-2.8
2023-01-21T06:06:36.868Z,-2.8
2023-01-21T06:07:36.861Z,-2.8
2023-01-21T06:08:36.875Z,-2.8
2023-01-21T06:09:36.857Z,-2.8
2023-01-21T06:10:36.860Z,-2.8
2023-01-21T06:11:36.869Z,-2.8
2023-01-21T06:12:36.885Z,-2.8
2023-01-21T06:13:36.888Z,-2.9
2023-01-21T06:14:36.960Z,-2.9
2023-01-21T06:33:18.033Z,-3
2023-01-21T06:35:46.283Z,-3.1
2023-01-21T06:39:28.657Z,-3.1
2023-01-21T06:41:19.839Z,-3
2023-01-21T06:46:16.372Z,-3
2023-01-21T06:47:30.461Z,-3
2023-01-21T06:52:37.996Z,-3.1
2023-01-21T06:53:19.129Z,-3
2023-01-21T06:53:29.420Z,-3.1
2023-01-21T06:53:49.973Z,-2.9
2023-01-21T06:54:20.835Z,-3
2023-01-21T06:55:36.853Z,-2.9
2023-01-21T06:56:36.882Z,-2.8
2023-01-21T06:57:36.868Z,-2.8
2023-01-21T06:58:36.860Z,-2.8
2023-01-21T06:59:36.876Z,-2.8
2023-01-21T07:00:36.858Z,-2.8
2023-01-21T07:01:36.926Z,-2.9
2023-01-21T07:02:36.915Z,-2.9
2023-01-21T07:03:36.869Z,-2.9
2023-01-21T07:04:36.902Z,-2.9
2023-01-21T07:05:36.856Z,-2.9
2023-01-21T07:06:36.866Z,-2.9
2023-01-21T07:07:36.862Z,-2.9
2023-01-21T07:08:36.894Z,-2.9
2023-01-21T07:09:36.860Z,-2.9
2023-01-21T07:10:36.858Z,-2.9
2023-01-21T07:11:36.853Z,-2.9
2023-01-21T07:12:36.863Z,-2.9
2023-01-21T07:13:36.865Z,-2.9
2023-01-21T07:14:36.855Z,-3
2023-01-21T07:15:36.848Z,-3
2023-01-21T07:16:36.856Z,-3
2023-01-21T07:17:36.853Z,-3
2023-01-21T07:18:36.862Z,-3
2023-01-21T07:19:36.855Z,-3
2023-01-21T07:20:37.955Z,-3
2023-01-21T07:21:36.862Z,-3
2023-01-21T07:22:36.864Z,-3
2023-01-21T07:23:36.856Z,-2.9
2023-01-21T07:24:36.852Z,-3
2023-01-21T07:25:37.521Z,-3
2023-01-21T07:26:36.853Z,-3
2023-01-21T07:27:36.857Z,-3
2023-01-21T07:28:36.907Z,-2.9
2023-01-21T07:29:36.872Z,-2.9
2023-01-21T07:30:36.984Z,-2.9
2023-01-21T07:31:37.127Z,-2.9
2023-01-21T07:32:36.863Z,-2.8
2023-01-21T07:33:36.865Z,-2.8
2023-01-21T07:44:38.184Z,-2.7
2023-01-21T07:52:36.867Z,-2.5
2023-01-21T07:53:36.858Z,-2.5
2023-01-21T07:54:36.859Z,-2.5
2023-01-21T07:55:36.863Z,-2.4
2023-01-21T07:56:36.865Z,-2.4
2023-01-21T07:57:36.866Z,-2.4
2023-01-21T07:58:36.859Z,-2.4
2023-01-21T07:59:36.870Z,-2.3
2023-01-21T08:00:36.871Z,-2.2
2023-01-21T08:01:36.926Z,-2.3
2023-01-21T08:02:36.895Z,-2.3
2023-01-21T08:03:36.859Z,-2.2
2023-01-21T08:04:36.856Z,-2.2
2023-01-21T08:05:36.855Z,-2.2
2023-01-21T08:06:36.858Z,-2.2
2023-01-21T08:07:36.852Z,-2.1
2023-01-21T08:08:36.856Z,-2.1
2023-01-21T08:09:36.893Z,-2.1
2023-01-21T08:10:36.862Z,-2.2
2023-01-21T08:11:36.869Z,-2.1
2023-01-21T08:12:36.860Z,-2
2023-01-21T08:13:36.873Z,-2
2023-01-21T08:14:36.864Z,-2
2023-01-21T08:15:36.864Z,-1.9
2023-01-21T08:16:36.966Z,-1.9
2023-01-21T08:17:36.858Z,-1.9
2023-01-21T08:18:36.871Z,-1.9
2023-01-21T08:19:36.867Z,-1.9
2023-01-21T08:20:36.860Z,-1.8
2023-01-21T08:21:36.865Z,-1.8
2023-01-21T08:22:36.852Z,-1.8
2023-01-21T08:23:36.850Z,-1.7
2023-01-21T08:24:36.859Z,-1.7
2023-01-21T08:25:36.858Z,-1.7
2023-01-21T08:26:36.857Z,-1.7
2023-01-21T08:27:36.857Z,-1.6
2023-01-21T08:28:36.880Z,-1.6
2023-01-21T08:29:36.858Z,-1.5
2023-01-21T08:30:36.907Z,-1.5
2023-01-21T08:31:36.897Z,-1.5
2023-01-21T08:32:36.882Z,-1.5
2023-01-21T08:33:36.915Z,-1.4
2023-01-21T08:34:36.872Z,-1.4
2023-01-21T08:35:36.867Z,-1.4
2023-01-21T08:36:36.859Z,-1.4
2023-01-21T08:37:36.889Z,-1.3
2023-01-21T08:38:36.949Z,-1.3
2023-01-21T08:58:19.236Z,-0.9
2023-01-21T09:45:36.906Z,-0.2
2023-01-21T09:46:36.877Z,-0.1
2023-01-21T09:47:36.873Z,-0.1
2023-01-21T09:48:36.877Z,-0.1
2023-01-21T09:49:36.887Z,0
2023-01-21T09:50:36.866Z,0
2023-01-21T09:51:36.867Z,0
2023-01-21T09:52:36.872Z,0
2023-01-21T09:53:36.872Z,0
2023-01-21T09:54:36.873Z,0.1
2023-01-21T09:55:36.869Z,0
2023-01-21T09:56:36.866Z,0.1
2023-01-21T09:57:36.877Z,0.1
2023-01-21T09:58:36.869Z,0.1
2023-01-21T09:59:36.869Z,0.2
2023-01-21T10:18:18.040Z,0.4
2023-01-21T10:20:36.868Z,0.4
2023-01-21T10:21:36.878Z,0.4
2023-01-21T10:22:36.879Z,0.4
2023-01-21T10:23:36.874Z,0.4
2023-01-21T10:24:36.861Z,0.4
2023-01-21T10:25:36.885Z,0.4
2023-01-21T10:26:36.904Z,0.5
2023-01-21T10:27:36.869Z,0.5
2023-01-21T10:28:36.869Z,0.5
2023-01-21T10:29:36.896Z,0.6
2023-01-21T10:30:36.949Z,0.6
2023-01-21T10:31:36.982Z,0.6
2023-01-21T10:32:36.867Z,0.6
2023-01-21T10:33:36.869Z,0.6
2023-01-21T10:34:36.865Z,0.7
2023-01-21T10:35:36.874Z,0.7
2023-01-21T10:37:36.873Z,0.6
2023-01-21T10:38:36.871Z,0.7
2023-01-21T10:39:36.876Z,0.7
2023-01-21T10:40:36.867Z,0.8
2023-01-21T10:41:36.909Z,0.7
2023-01-21T10:42:36.877Z,0.7
2023-01-21T10:43:36.894Z,0.7
2023-01-21T10:44:36.869Z,0.8
2023-01-21T10:45:36.878Z,0.7
2023-01-21T10:46:36.889Z,0.7
2023-01-21T10:47:36.871Z,0.8
2023-01-21T10:48:36.873Z,0.8
2023-01-21T10:49:36.873Z,0.8
2023-01-21T10:50:36.890Z,0.9
2023-01-21T10:51:36.864Z,0.9
2023-01-21T10:52:36.886Z,0.9
2023-01-21T10:53:36.876Z,0.9
2023-01-21T10:54:36.872Z,1
2023-01-21T10:55:36.882Z,0.8
2023-01-21T10:56:36.873Z,0.8
2023-01-21T10:57:36.873Z,0.9
2023-01-21T10:58:36.862Z,0.8
2023-01-21T10:59:36.875Z,0.8
2023-01-21T11:00:36.871Z,0.8
2023-01-21T11:01:36.885Z,0.8
2023-01-21T11:03:36.896Z,0.8
2023-01-21T11:04:36.872Z,0.8
2023-01-21T11:05:36.869Z,0.8
2023-01-21T11:06:36.964Z,0.8
2023-01-21T11:25:18.349Z,1.2
2023-01-21T11:26:46.726Z,1.2
2023-01-21T12:12:36.874Z,2.1
2023-01-21T12:13:36.870Z,2.1
2023-01-21T12:14:36.873Z,2.1
2023-01-21T12:15:36.888Z,2.1
2023-01-21T12:16:36.886Z,2
2023-01-21T12:17:39.850Z,2
2023-01-21T12:18:36.900Z,2
2023-01-21T12:19:36.874Z,2
2023-01-21T12:20:36.876Z,2
2023-01-21T12:21:36.879Z,2
2023-01-21T12:22:36.871Z,2.1
2023-01-21T12:23:36.897Z,2
2023-01-21T12:24:36.874Z,2
2023-01-21T12:25:36.876Z,2.1
2023-01-21T12:26:36.885Z,2.1
2023-01-21T12:46:17.787Z,2.3
2023-01-21T13:32:36.880Z,1.9
2023-01-21T13:33:36.881Z,2
2023-01-21T13:34:39.311Z,2.1
2023-01-21T13:35:36.892Z,2.1
2023-01-21T13:36:36.889Z,1.9
2023-01-21T13:37:36.883Z,1.8
2023-01-21T13:38:36.889Z,1.9
2023-01-21T13:39:36.891Z,2
2023-01-21T13:40:39.314Z,2
2023-01-21T13:41:36.917Z,2.1
2023-01-21T13:42:36.880Z,2
2023-01-21T13:43:36.890Z,2
2023-01-21T13:44:36.879Z,2.1
2023-01-21T13:45:36.983Z,2.1
2023-01-21T13:46:39.205Z,2
2023-01-21T13:47:36.886Z,2
2023-01-21T13:48:46.800Z,2
2023-01-21T14:06:18.066Z,2.2
2023-01-21T14:08:46.321Z,2.2
2023-01-21T14:12:28.713Z,2.2
2023-01-21T14:14:19.879Z,2
2023-01-21T14:19:16.370Z,2.1
2023-01-21T14:20:30.501Z,2.1
2023-01-21T14:30:17.795Z,2
2023-01-21T14:30:46.983Z,2.2
2023-01-21T15:11:36.896Z,1.7
2023-01-21T15:12:36.919Z,1.8
2023-01-21T15:13:36.891Z,1.8
2023-01-21T15:14:36.900Z,1.8
2023-01-21T15:15:36.979Z,1.7
2023-01-21T15:16:36.992Z,1.7
2023-01-21T15:17:36.891Z,1.7
2023-01-21T15:18:36.891Z,1.8
2023-01-21T15:19:36.900Z,1.7
2023-01-21T15:20:39.393Z,1.7
2023-01-21T15:21:36.915Z,1.7
2023-01-21T15:22:36.898Z,1.7
2023-01-21T15:23:36.913Z,1.7
2023-01-21T15:24:36.908Z,1.7
2023-01-21T15:25:36.954Z,1.8
2023-01-21T15:26:36.918Z,1.7
2023-01-21T15:45:18.425Z,1.6
2023-01-21T15:47:46.005Z,1.5
2023-01-21T16:10:29.930Z,1.4
2023-01-21T16:34:36.907Z,1.4
2023-01-21T16:35:36.902Z,1.5
2023-01-21T16:36:36.905Z,1.4
2023-01-21T16:37:37.011Z,1.3
2023-01-21T16:38:36.902Z,1.4
2023-01-21T16:39:36.906Z,1.4
2023-01-21T16:40:36.909Z,1.4
2023-01-21T16:41:36.904Z,1.4
2023-01-21T16:42:36.907Z,1.4
2023-01-21T16:43:36.908Z,1.4
2023-01-21T16:44:37.019Z,1.5
2023-01-21T16:45:36.908Z,1.4
2023-01-21T16:46:36.925Z,1.4
2023-01-21T16:47:36.970Z,1.4
2023-01-21T16:48:36.909Z,1.3
2023-01-21T16:49:36.955Z,1.4
2023-01-21T17:03:46.014Z,1.1
2023-01-21T17:08:18.081Z,1
2023-01-21T17:09:45.690Z,1
2023-01-21T17:31:29.577Z,1.1
2023-01-21T17:56:36.924Z,0.9
2023-01-21T17:57:36.940Z,1
2023-01-21T17:58:36.921Z,0.9
2023-01-21T17:59:36.917Z,0.9
2023-01-21T18:00:36.912Z,0.9
2023-01-21T18:01:36.959Z,0.9
2023-01-21T18:02:36.946Z,0.9
2023-01-21T18:03:36.905Z,0.9
2023-01-21T18:04:36.933Z,0.8
2023-01-21T18:05:38.323Z,0.9
2023-01-21T18:06:36.917Z,0.8
2023-01-21T18:07:36.919Z,0.8
2023-01-21T18:08:36.908Z,0.8
2023-01-21T18:09:36.909Z,0.8
2023-01-21T18:10:36.918Z,0.8
2023-01-21T18:11:36.906Z,0.8
2023-01-21T18:18:45.999Z,0.9
2023-01-21T18:23:46.063Z,0.8
2023-01-21T18:30:18.087Z,0.8
2023-01-21T18:32:46.346Z,0.7
2023-01-21T18:36:28.720Z,0.7
2023-01-21T18:38:19.887Z,0.8
2023-01-21T18:43:16.383Z,0.7
2023-01-21T18:44:30.510Z,0.7
2023-01-21T18:54:05.946Z,0.8
2023-01-21T18:54:19.498Z,0.7
2023-01-21T18:54:26.272Z,0.6
2023-01-21T18:54:47.278Z,0.6
2023-01-21T19:13:28.489Z,0.7
2023-01-21T19:36:36.919Z,0.7
2023-01-21T19:37:36.950Z,0.7
2023-01-21T19:38:36.917Z,0.7
2023-01-21T19:39:36.931Z,0.7
2023-01-21T19:40:36.921Z,0.7
2023-01-21T19:41:36.928Z,0.7
2023-01-21T19:42:36.916Z,0.7
2023-01-21T19:43:36.929Z,0.7
2023-01-21T19:44:36.968Z,0.7
2023-01-21T19:45:36.921Z,0.7
2023-01-21T19:46:36.985Z,0.7
2023-01-21T19:47:36.918Z,0.7
2023-01-21T19:48:36.921Z,0.6
2023-01-21T19:49:36.948Z,0.6
2023-01-21T19:50:36.919Z,0.7
2023-01-21T19:51:37.007Z,0.6
2023-01-21T20:10:18.093Z,0.7
2023-01-21T20:12:46.349Z,0.6
2023-01-21T21:01:36.926Z,0.5
2023-01-21T21:02:36.981Z,0.5
2023-01-21T21:03:36.925Z,0.6
2023-01-21T21:04:36.922Z,0.7
2023-01-21T21:05:36.938Z,0.7
2023-01-21T21:06:36.965Z,0.6
2023-01-21T21:07:36.921Z,0.7
2023-01-21T21:08:36.926Z,0.7
2023-01-21T21:09:36.927Z,0.6
2023-01-21T21:10:36.927Z,0.6
2023-01-21T21:11:36.985Z,0.7
2023-01-21T21:12:36.953Z,0.6
2023-01-21T21:13:36.937Z,0.6
2023-01-21T21:14:36.939Z,0.5
2023-01-21T21:15:36.936Z,0.6
2023-01-21T21:25:38.270Z,0.7
2023-01-21T21:34:47.544Z,0.9
2023-01-21T22:22:36.933Z,0.3
2023-01-21T22:23:36.948Z,0.3
2023-01-21T22:24:36.934Z,0.3
2023-01-21T22:25:36.938Z,0.3
2023-01-21T22:26:36.950Z,0.2
2023-01-21T22:27:36.931Z,0.2
2023-01-21T22:29:36.933Z,0.2
2023-01-21T22:30:37.032Z,0.2
2023-01-21T22:31:37.095Z,0.2
2023-01-21T22:32:36.932Z,0.1
2023-01-21T22:33:36.936Z,0.1
2023-01-21T22:34:36.930Z,0.1
2023-01-21T22:35:36.931Z,0.1
2023-01-21T22:36:36.945Z,0.1
2023-01-21T22:55:18.351Z,-0.1
2023-01-21T22:57:46.349Z,-0.1
2023-01-21T23:01:28.775Z,-0.2
2023-01-21T23:03:19.916Z,-0.2
2023-01-21T23:08:16.410Z,-0.1
2023-01-21T23:16:19.492Z,-0.2
2023-01-21T23:37:29.199Z,0.4
2023-01-21T23:58:36.953Z,0.4
2023-01-21T23:59:36.960Z,0.4
